Currently 45°F in Murrieta, California, USA
45°F
52°F / 44°F
calm
0.00"
Wednesday, March 29, 2017 6:19 AM PDT

Murrieta, California Weather Summary
Last 36 Hours

Temperature Winds Hourly Humidity Dewpoint
Time Report Norm Report Norm Max Gusts Precip. Rpt. Norm Rpt. Norm Pressure
1Wed 06:19 AM  44.5°F  48°F  calm  1 mph  none  0.00"  84%  92%  40°F  45°F  30.06"
3Wed 06:12 AM  44.3°F  48°F  calm  calm  none  ----  83%  92%  39°F  45°F  30.06"
Wed 06:00 AM  44.8°F  48°F  calm  calm  1 mph  0.00"  82%  92%  39°F  45°F  30.06"
Wed 05:00 AM  46.1°F  48°F  calm  1 mph  4 mph  0.00"  78%  91%  39°F  45°F  30.05"
Wed 04:00 AM  47.1°F  49°F  calm  1 mph  3 mph  0.00"  78%  90%  40°F  46°F  30.06"
Wed 03:00 AM  46.9°F  49°F  calm  1 mph  5 mph  0.00"  80%  89%  41°F  46°F  30.06"
Wed 02:00 AM  48.7°F  50°F  3 mph NW  1 mph  8 mph  0.00"  76%  88%  41°F  46°F  30.07"
Wed 01:00 AM  50.2°F  51°F  3 mph NW  2 mph  6 mph  0.00"  73%  87%  42°F  47°F  30.07"
2Wed 12:16 AM  52.3°F  51°F  1 mph SW  3 mph  6 mph  ----  69%  86%  42°F  47°F  30.07"
Wed 12:00 AM  51.9°F  52°F  1 mph SW  3 mph  9 mph  0.00"  68%  86%  41°F  47°F  30.07"
Tue 11:00 PM  53.2°F  52°F  calm  2 mph  10 mph  0.00"  65%  84%  41°F  48°F  30.07"
Tue 10:00 PM  54.4°F  54°F  6 mph SW  3 mph  13 mph  0.00"  64%  81%  42°F  48°F  30.06"
Tue 09:00 PM  58.4°F  55°F  6 mph SW  3 mph  15 mph  0.00"  57%  77%  43°F  48°F  30.03"
Tue 08:00 PM  62.3°F  58°F  calm  5 mph  10 mph  0.00"  48%  73%  42°F  49°F  30.01"
Tue 07:00 PM  65.9°F  61°F  2 mph N  6 mph  13 mph  0.00"  47%  67%  44°F  49°F  29.98"
Tue 06:00 PM  72.6°F  64°F  calm  7 mph  13 mph  0.00"  21%  60%  28°F  49°F  29.98"
Tue 05:00 PM  76.3°F  67°F  6 mph NW  8 mph  11 mph  0.00"  17%  53%  27°F  49°F  29.97"
Tue 04:00 PM  76.5°F  70°F  7 mph NW  8 mph  14 mph  0.00"  16%  50%  25°F  49°F  29.98"
Tue 03:00 PM  76.9°F  71°F  calm  8 mph  12 mph  0.00"  18%  48%  28°F  49°F  29.99"
Tue 02:00 PM  76.8°F  71°F  8 mph NE  7 mph  16 mph  0.00"  18%  46%  29°F  49°F  30.01"
Tue 01:00 PM  75.1°F  70°F  1 mph N  6 mph  14 mph  0.00"  21%  48%  31°F  49°F  30.04"
Tue 12:00 PM  73.0°F  68°F  8 mph NE  5 mph  14 mph  0.00"  27%  51%  36°F  49°F  30.06"
Tue 11:00 AM  69.3°F  65°F  calm  4 mph  15 mph  0.00"  32%  58%  37°F  50°F  30.07"
Tue 10:00 AM  66.0°F  61°F  calm  3 mph  12 mph  0.00"  39%  68%  39°F  50°F  30.07"
Tue 09:00 AM  56.4°F  56°F  calm  2 mph  6 mph  0.00"  74%  79%  48°F  49°F  30.07"
Tue 08:00 AM  50.1°F  51°F  2 mph E  1 mph  10 mph  0.00"  90%  89%  47°F  48°F  30.06"
Tue 07:00 AM  44.4°F  48°F  calm  1 mph  10 mph  0.00"  95%  92%  43°F  45°F  30.04"
Tue 06:00 AM  44.7°F  48°F  calm  1 mph  8 mph  0.00"  96%  92%  44°F  45°F  30.04"
Tue 05:00 AM  45.7°F  48°F  calm  1 mph  6 mph  0.00"  96%  91%  45°F  45°F  30.03"
Tue 04:00 AM  47.4°F  49°F  calm  1 mph  7 mph  0.00"  96%  90%  46°F  46°F  30.01"
Tue 03:00 AM  47.7°F  49°F  2 mph SW  1 mph  7 mph  0.00"  96%  89%  47°F  46°F  30.03"
Tue 02:00 AM  48.9°F  50°F  3 mph W  1 mph  8 mph  0.00"  96%  88%  48°F  46°F  30.04"
Tue 01:00 AM  49.9°F  51°F  2 mph SW  2 mph  8 mph  0.00"  96%  87%  49°F  47°F  30.04"
Tue 12:00 AM  50.5°F  51°F  1 mph SW  3 mph  10 mph  0.00"  95%  86%  49°F  47°F  30.05"
Mon 11:00 PM  52.3°F  52°F  4 mph SW  2 mph  8 mph  0.00"  94%  84%  51°F  47°F  30.05"
Mon 10:00 PM  53.7°F  54°F  calm  3 mph  14 mph  0.00"  92%  81%  51°F  48°F  30.04"
Mon 09:00 PM  54.5°F  55°F  2 mph N  3 mph  19 mph  0.00"  91%  78%  52°F  48°F  30.01"
Mon 08:00 PM  56.2°F  57°F  calm  5 mph  16 mph  0.00"  82%  73%  50°F  49°F  29.99"
Mon 07:00 PM  59.2°F  61°F  calm  6 mph  16 mph  0.00"  70%  67%  49°F  49°F  29.96"

  1. Current weather data. No green row appears if the current weather data is also the high or low for the current day.
  2. High temperature for the current day.
  3. Low temperature for the current day.

The Murrieta weather pages are a service of WeatherCurrents. Murrieta, California is located in the Temecula Valley, in southwestern Riverside County, at the junctions of the Interstate 15 and 215 highways.
Copyright ©Wed Mar 29 06:20:04 PDT 2017  WeatherCurrents. All rights reserved. - Submit questions and comments - Privacy Policy

This page automatically refreshes every 10 minutes.